createdAt,value
2016-11-01T00:02:29.113Z,19.68
2016-11-01T00:07:29.058Z,19.64
2016-11-01T00:12:28.708Z,19.57
2016-11-01T00:17:28.956Z,19.57
2016-11-01T00:22:28.943Z,19.56
2016-11-01T00:27:28.860Z,19.46
2016-11-01T00:32:28.804Z,19.49
2016-11-01T00:37:28.760Z,19.46
2016-11-01T00:42:28.704Z,19.43
2016-11-01T00:47:28.658Z,19.45
2016-11-01T00:52:28.606Z,19.46
2016-11-01T00:57:28.246Z,19.46
2016-11-01T01:02:28.498Z,19.3
2016-11-01T01:07:28.142Z,19.31
2016-11-01T01:12:28.402Z,19.3
2016-11-01T01:17:27.764Z,19.34
2016-11-01T01:22:28.026Z,19.27
2016-11-01T01:27:28.246Z,19.28
2016-11-01T01:32:28.194Z,19.24
2016-11-01T01:37:27.534Z,19.23
2016-11-01T01:42:27.783Z,19.25
2016-11-01T01:47:27.733Z,19.24
2016-11-01T01:52:27.372Z,19.24
2016-11-01T01:57:27.934Z,19.23
2016-11-01T02:02:27.576Z,19.17
2016-11-01T02:07:27.841Z,19.24
2016-11-01T02:12:27.472Z,19.28
2016-11-01T02:17:27.727Z,19.24
2016-11-01T02:22:27.667Z,19.16
2016-11-01T02:27:27.623Z,19.15
2016-11-01T02:32:27.566Z,19.15
2016-11-01T02:37:27.512Z,19.15
2016-11-01T02:42:27.152Z,19.15
2016-11-01T02:47:27.102Z,19.16
2016-11-01T02:52:27.354Z,19.07
2016-11-01T02:57:27.298Z,18.99
2016-11-01T03:02:27.250Z,19.05
2016-11-01T03:07:27.196Z,19.05
2016-11-01T03:12:27.142Z,19.1
2016-11-01T03:17:27.084Z,19.05
2016-11-01T03:22:27.032Z,18.99
2016-11-01T03:27:26.986Z,18.97
2016-11-01T03:32:26.938Z,18.97
2016-11-01T03:37:26.900Z,18.99
2016-11-01T03:42:26.524Z,18.93
2016-11-01T03:47:26.768Z,18.99
2016-11-01T03:52:26.718Z,18.91
2016-11-01T03:57:26.665Z,18.99
2016-11-01T04:02:26.619Z,18.91
2016-11-01T04:07:26.570Z,18.86
2016-11-01T04:12:26.513Z,18.91
2016-11-01T04:17:26.461Z,18.89
2016-11-01T04:22:26.405Z,18.87
2016-11-01T04:27:26.353Z,18.84
2016-11-01T04:32:26.303Z,18.78
2016-11-01T04:37:26.245Z,18.89
2016-11-01T04:42:26.229Z,18.84
2016-11-01T04:47:26.139Z,18.78
2016-11-01T04:52:26.083Z,18.82
2016-11-01T04:57:26.035Z,18.78
2016-11-01T05:02:25.978Z,18.74
2016-11-01T05:07:25.924Z,18.82
2016-11-01T05:12:25.570Z,18.78
2016-11-01T05:17:25.818Z,18.75
2016-11-01T05:22:25.766Z,18.79
2016-11-01T05:27:25.738Z,18.71
2016-11-01T05:32:25.355Z,18.75
2016-11-01T05:37:24.992Z,18.75
2016-11-01T05:42:25.242Z,18.72
2016-11-01T05:47:25.499Z,18.69
2016-11-01T05:52:25.125Z,18.66
2016-11-01T05:57:24.794Z,18.69
2016-11-01T06:02:25.325Z,18.68
2016-11-01T06:07:25.266Z,18.63
2016-11-01T06:12:25.217Z,18.71
2016-11-01T06:17:25.184Z,18.72
2016-11-01T06:22:25.108Z,18.75
2016-11-01T06:27:25.049Z,18.69
2016-11-01T06:32:24.997Z,18.75
2016-11-01T06:37:24.934Z,18.76
2016-11-01T06:42:24.268Z,18.78
2016-11-01T06:47:24.520Z,18.76
2016-11-01T06:52:24.760Z,18.76
2016-11-01T06:57:24.707Z,18.82
2016-11-01T07:02:24.646Z,18.84
2016-11-01T07:07:24.596Z,18.86
2016-11-01T07:12:24.548Z,19.05
2016-11-01T07:17:24.482Z,19
2016-11-01T07:22:24.442Z,19.07
2016-11-01T07:27:24.084Z,19.02
2016-11-01T07:32:24.331Z,19.06
2016-11-01T07:37:23.972Z,19.07
2016-11-01T07:42:24.229Z,19.15
2016-11-01T07:47:24.176Z,19.09
2016-11-01T07:52:23.826Z,19.1
2016-11-01T07:57:24.062Z,19.16
2016-11-01T08:02:24.019Z,19.13
2016-11-01T08:07:23.963Z,19.17
2016-11-01T08:12:23.906Z,19.23
2016-11-01T08:17:23.861Z,19.23
2016-11-01T08:22:23.806Z,19.23
2016-11-01T08:27:23.447Z,19.25
2016-11-01T08:32:23.702Z,19.35
2016-11-01T08:37:23.649Z,19.24
2016-11-01T08:42:23.295Z,19.24
2016-11-01T08:47:23.553Z,19.25
2016-11-01T08:52:22.885Z,19.25
2016-11-01T08:57:23.437Z,19.27
2016-11-01T09:02:23.383Z,19.3
2016-11-01T09:07:23.032Z,19.3
2016-11-01T09:12:23.285Z,19.42
2016-11-01T09:17:23.233Z,19.49
2016-11-01T09:22:23.176Z,19.46
2016-11-01T09:27:22.825Z,19.5
2016-11-01T09:32:22.468Z,19.52
2016-11-01T09:37:22.720Z,19.52
2016-11-01T09:42:22.676Z,19.55
2016-11-01T09:47:22.622Z,19.56
2016-11-01T09:52:22.573Z,19.47
2016-11-01T09:57:22.515Z,19.38
2016-11-01T10:02:22.771Z,19.5
2016-11-01T10:07:22.720Z,19.52
2016-11-01T10:12:22.362Z,19.5
2016-11-01T10:17:22.624Z,19.42
2016-11-01T10:22:22.261Z,19.5
2016-11-01T10:27:22.509Z,19.46
2016-11-01T10:32:22.467Z,19.47
2016-11-01T10:37:22.107Z,19.28
2016-11-01T10:42:22.359Z,19.3
2016-11-01T10:47:22.309Z,19.32
2016-11-01T10:52:22.254Z,19.34
2016-11-01T10:57:22.246Z,19.27
2016-11-01T11:02:21.851Z,19.25
2016-11-01T11:07:21.492Z,19.37
2016-11-01T11:12:22.066Z,19.3
2016-11-01T11:17:21.395Z,19.3
2016-11-01T11:22:21.645Z,19.27
2016-11-01T11:27:21.594Z,19.32
2016-11-01T11:32:21.860Z,19.32
2016-11-01T11:37:21.798Z,19.37
2016-11-01T11:42:21.750Z,19.3
2016-11-01T11:47:21.391Z,19.31
2016-11-01T11:52:21.339Z,19.42
2016-11-01T11:57:21.285Z,19.38
2016-11-01T12:02:21.534Z,19.45
2016-11-01T12:07:21.484Z,19.55
2016-11-01T12:12:21.433Z,19.43
2016-11-01T12:17:21.387Z,19.42
2016-11-01T12:22:21.339Z,19.47
2016-11-01T12:27:21.286Z,19.52
2016-11-01T12:32:21.274Z,19.43
2016-11-01T12:37:20.879Z,19.38
2016-11-01T12:42:21.132Z,19.35
2016-11-01T12:47:20.782Z,19.27
2016-11-01T12:52:20.725Z,19.3
2016-11-01T12:57:20.988Z,19.32
2016-11-01T13:02:20.970Z,19.27
2016-11-01T13:07:20.879Z,19.31
2016-11-01T13:12:20.830Z,19.34
2016-11-01T13:17:20.496Z,19.3
2016-11-01T13:22:20.729Z,19.38
2016-11-01T13:27:20.373Z,19.24
2016-11-01T13:32:20.357Z,19.25
2016-11-01T13:37:20.272Z,19.27
2016-11-01T13:42:20.529Z,19.23
2016-11-01T13:47:20.480Z,19.2
2016-11-01T13:52:20.429Z,19.19
2016-11-01T13:57:20.393Z,19.23
2016-11-01T14:02:20.020Z,19.19
2016-11-01T14:07:20.276Z,19.23
2016-11-01T14:12:20.227Z,19.2
2016-11-01T14:17:20.208Z,19.17
2016-11-01T14:22:20.121Z,19.24
2016-11-01T14:27:19.761Z,19.12
2016-11-01T14:32:19.712Z,19.2
2016-11-01T14:37:19.967Z,19.15
2016-11-01T14:42:19.606Z,19.05
2016-11-01T14:47:19.859Z,19.06
2016-11-01T14:52:19.805Z,19.06
2016-11-01T14:57:19.756Z,19
2016-11-01T15:02:19.395Z,19.07
2016-11-01T15:07:19.344Z,19.05
2016-11-01T15:12:19.290Z,18.99
2016-11-01T15:17:19.550Z,19.02
2016-11-01T15:22:19.490Z,19.05
2016-11-01T15:27:19.384Z,18.91
2016-11-01T15:32:19.101Z,19
2016-11-01T15:37:19.034Z,19.02
2016-11-01T15:42:19.283Z,19.02
2016-11-01T15:47:19.241Z,19.09
2016-11-01T15:52:19.202Z,19.07
2016-11-01T15:57:19.148Z,19.15
2016-11-01T16:02:18.479Z,19.15
2016-11-01T16:07:19.046Z,19.24
2016-11-01T16:12:18.988Z,19.2
2016-11-01T16:17:18.635Z,19.24
2016-11-01T16:22:18.280Z,19.25
2016-11-01T16:27:18.828Z,19.25
2016-11-01T16:32:18.775Z,19.37
2016-11-01T16:37:18.433Z,19.46
2016-11-01T16:42:18.676Z,19.45
2016-11-01T16:47:18.331Z,19.49
2016-11-01T16:52:18.573Z,19.67
2016-11-01T16:57:18.531Z,19.74
2016-11-01T17:02:18.170Z,20.12
2016-11-01T17:07:18.424Z,20.23
2016-11-01T17:12:18.075Z,20.19
2016-11-01T17:17:18.334Z,20.08
2016-11-01T17:22:17.977Z,19.93
2016-11-01T17:27:18.240Z,19.97
2016-11-01T17:32:18.183Z,19.82
2016-11-01T17:37:17.837Z,19.87
2016-11-01T17:42:18.085Z,19.85
2016-11-01T17:47:17.739Z,19.85
2016-11-01T17:52:17.686Z,19.71
2016-11-01T17:57:17.647Z,19.79
2016-11-01T18:02:17.897Z,19.72
2016-11-01T18:07:17.845Z,19.74
2016-11-01T18:12:17.485Z,19.74
2016-11-01T18:17:17.756Z,19.9
2016-11-01T18:22:17.696Z,19.95
2016-11-01T18:27:17.351Z,19.95
2016-11-01T18:32:17.290Z,20.15
2016-11-01T18:37:17.245Z,20.23
2016-11-01T18:42:17.194Z,20.2
2016-11-01T18:47:17.451Z,20.22
2016-11-01T18:52:16.784Z,20.22
2016-11-01T18:57:17.356Z,20.27
2016-11-01T19:02:16.695Z,20.3
2016-11-01T19:07:17.257Z,20.48
2016-11-01T19:12:17.208Z,20.46
2016-11-01T19:17:17.164Z,20.48
2016-11-01T19:22:16.503Z,20.49
2016-11-01T19:27:17.103Z,20.44
2016-11-01T19:32:16.715Z,20.51
2016-11-01T19:37:16.670Z,20.51
2016-11-01T19:42:16.929Z,20.49
2016-11-01T19:47:16.879Z,20.49
2016-11-01T19:52:16.848Z,20.51
2016-11-01T19:57:16.497Z,20.46
2016-11-01T20:02:16.803Z,20.46
2016-11-01T20:07:16.400Z,20.42
2016-11-01T20:12:16.671Z,20.46
2016-11-01T20:17:16.619Z,20.51
2016-11-01T20:22:15.955Z,20.51
2016-11-01T20:27:16.525Z,20.46
2016-11-01T20:32:16.478Z,20.42
2016-11-01T20:37:16.122Z,20.46
2016-11-01T20:42:16.378Z,20.49
2016-11-01T20:47:16.332Z,20.6
2016-11-01T20:52:15.993Z,20.54
2016-11-01T20:57:16.249Z,20.54
2016-11-01T21:02:15.883Z,20.51
2016-11-01T21:07:16.147Z,20.49
2016-11-01T21:12:16.094Z,20.51
2016-11-01T21:17:16.050Z,20.53
2016-11-01T21:22:16.001Z,20.63
2016-11-01T21:27:15.954Z,20.54
2016-11-01T21:32:15.914Z,20.51
2016-11-01T21:37:15.573Z,20.51
2016-11-01T21:42:15.812Z,20.44
2016-11-01T21:47:15.770Z,20.51
2016-11-01T21:52:15.729Z,20.49
2016-11-01T21:57:15.060Z,20.48
2016-11-01T22:02:15.328Z,20.49
2016-11-01T22:07:15.274Z,20.46
2016-11-01T22:12:15.230Z,20.4
2016-11-01T22:17:15.492Z,20.35
2016-11-01T22:22:15.451Z,20.38
2016-11-01T22:27:15.386Z,20.27
2016-11-01T22:32:15.339Z,20.3
2016-11-01T22:37:15.298Z,20.26
2016-11-01T22:42:15.285Z,20.27
2016-11-01T22:47:14.904Z,20.19
2016-11-01T22:52:15.155Z,20.25
2016-11-01T22:57:15.101Z,20.15
2016-11-01T23:02:15.055Z,20.12
2016-11-01T23:07:14.702Z,20.07
2016-11-01T23:12:14.958Z,19.98
2016-11-01T23:17:14.919Z,19.86
2016-11-01T23:22:14.561Z,19.85
2016-11-01T23:27:14.818Z,19.8
2016-11-01T23:32:14.766Z,19.72
2016-11-01T23:37:14.410Z,19.65
2016-11-01T23:42:14.665Z,19.6
2016-11-01T23:47:14.616Z,19.47
2016-11-01T23:52:14.572Z,19.52
2016-11-01T23:57:14.524Z,19.49
